Chargement...
 

Motu Uta



Localisation
Les différents transects et le thermographe se trouvent à -14mètres sur la pente externe.
17°31.360'S/149°34.160'W (conversion DD/DMS)
La Sonde multiparamètres SB16 était à -52 mètres et à la position
17°31.334'S/149°34.354'W (conversion DD/DMS) jusqu'au 4 mai 2017 puis déplacée à -29m à la position suivante 17°31.485'S/149°34.460'W (conversion DMD/DMS).

Programme concerné
Le Polynesia Mana depuis 1996

Icon Corail 35px L'analyse du recouvrement corallien est faite selon trois méthodes : Transect corallien par photo-quadrat
Relevés coralliens en « manta tow »
Relevés photographiques paysagers
Vous pouvez accéder aux et aux quadrats
Icon Poisson 35px Les poissons font l'objet de transects-couloir.
Voici l'accès aux données
Icon Temp Paramètres physico-chimiques
Les analyses de la température, la conductivité, la salinité, le pH, l'oxygène et l'oxygène saturé sont réalisées grâce à la Sonde multiparamètres SB16.
Voici l'accès aux données
Icon Temp L'analyse de la température est réalisée grâce au thermographe SBE56.
Voici l'accès aux données du thermographe

Quadrat n°10 sur la pente externe de Tahiti Motu Uta, en 2015/CRIOBE

Historique Motu Uta
Données brutes de suivi des équipements. Les dates affichées correspondent à la date de modification du fichier informatique en laboratoire.

DateDepartureArrivalInstrument
2012-10-09 16:15:24CRIOBE > MooreaCRIOBE > PapeeteSBE5P Pompe 5219
2012-10-09 16:29:33CRIOBE > MooreaCRIOBE > PapeeteSBE16plusV2 6052
2012-10-09 16:29:53CRIOBE > TaapunaCRIOBE > PapeeteSBE18 pH 0700
2012-10-09 16:30:38CRIOBE > TaapunaCRIOBE > PapeeteSBE43 Oxygen 1408
2013-03-27 08:26:21Sea BirdCRIOBE > PapeeteSBE16plusV2 6167
2013-03-27 09:48:13Sea BirdCRIOBE > PapeeteFLNTUS fluo turb 1916
2013-03-27 09:55:32Sea BirdCRIOBE > PapeeteSBE18 pH 0656
2013-03-27 09:56:56Sea BirdCRIOBE > PapeeteSBE43 Oxygen 1609
2013-03-27 14:23:34Sea BirdCRIOBE > PapeeteSBE5P Pompe 5040
2013-03-28 13:22:30CRIOBE > PapeeteCRIOBE > MooreaSBE16plusV2 6052
2013-03-28 13:22:57CRIOBE > PapeeteCRIOBE > MooreaSBE18 pH 0700
2013-03-28 13:23:15CRIOBE > PapeeteCRIOBE > MooreaSBE43 Oxygen 1408
2013-03-28 13:23:36CRIOBE > PapeeteCRIOBE > MooreaSBE5P Pompe 5219
2013-09-18 11:57:18CRIOBE > MooreaCRIOBE > PapeeteSBE5P Pompe 5673
2013-09-18 11:57:26CRIOBE > MooreaCRIOBE > PapeeteFLNTUS fluo turb 1936
2013-09-18 11:57:32CRIOBE > MooreaCRIOBE > PapeeteSBE18 pH 0664
2013-09-18 11:57:37CRIOBE > MooreaCRIOBE > PapeeteSBE16plusV2 6051
2013-09-18 11:57:42CRIOBE > MooreaCRIOBE > PapeeteSBE43 Oxygen 1409
2013-10-01 14:07:37CRIOBE > PapeeteCRIOBE > MooreaFLNTUS fluo turb 1916
2013-10-01 14:09:27CRIOBE > PapeeteCRIOBE > MooreaSBE16plusV2 6167
2013-10-01 14:09:51CRIOBE > PapeeteCRIOBE > MooreaSBE18 pH 0656
2013-10-01 14:10:49CRIOBE > PapeeteCRIOBE > MooreaSBE43 Oxygen 1609
2013-10-01 14:11:04CRIOBE > PapeeteCRIOBE > MooreaSBE5P Pompe 5040
2014-03-27 00:42:49CRIOBE > MooreaCRIOBE > PapeeteFLNTUS fluo turb 1916
2014-03-27 01:04:15CRIOBE > MooreaCRIOBE > PapeeteSBE18 pH 0778
2014-03-27 01:22:40CRIOBE > MooreaCRIOBE > PapeeteSBE43 Oxygen 1864
2014-03-27 01:38:13CRIOBE > MooreaCRIOBE > PapeeteSBE16plusV2 6052
2014-04-03 02:44:08CRIOBE > PapeeteCRIOBE > MooreaFLNTUS fluo turb 1936
2014-04-03 02:45:00CRIOBE > PapeeteCRIOBE > MooreaSBE16plusV2 6051
2014-04-03 02:46:05CRIOBE > PapeeteCRIOBE > MooreaSBE18 pH 0664
2014-04-03 02:47:00CRIOBE > PapeeteCRIOBE > MooreaSBE43 Oxygen 1409
2014-04-03 02:47:34CRIOBE > PapeeteCRIOBE > MooreaSBE5P Pompe 5673
2014-04-03 02:54:30CRIOBE > MooreaCRIOBE > PapeeteSBE5P Pompe 5219
2014-09-30 03:32:57CRIOBE > MooreaCRIOBE > PapeeteSBE16plusV2 6158
2014-09-30 03:33:17CRIOBE > MooreaCRIOBE > PapeeteSBE18 pH 0700
2014-09-30 03:33:35CRIOBE > MooreaCRIOBE > PapeeteSBE43 Oxygen 1609
2014-09-30 21:09:15CRIOBE > MooreaCRIOBE > PapeeteSBE5P Pompe 4997
2014-10-08 22:40:00CRIOBE > PapeeteCRIOBE > MooreaSBE43 Oxygen 1864
2014-10-08 22:40:39CRIOBE > PapeeteCRIOBE > MooreaSBE18 pH 0778
2014-10-08 22:41:39CRIOBE > PapeeteCRIOBE > MooreaSBE5P Pompe 5219
2014-10-08 22:43:33CRIOBE > PapeeteCRIOBE > MooreaSBE16plusV2 6052
2014-10-08 22:44:12CRIOBE > PapeeteCRIOBE > MooreaFLNTUS fluo turb 1916
2015-04-01 03:32:55CRIOBE > MooreaCRIOBE > PapeeteSBE18 pH 0784
2015-04-01 03:33:01CRIOBE > TaapunaCRIOBE > PapeeteSBE43 Oxygen 1408
2015-04-01 03:33:16CRIOBE > TaapunaCRIOBE > PapeeteSBE16plusV2 6167
2015-04-01 03:35:20CRIOBE > MooreaCRIOBE > PapeeteFLNTUS fluo turb 1916
2015-04-01 21:07:26CRIOBE > MooreaCRIOBE > PapeeteSBE5P Pompe 5040
2015-04-12 01:14:45CRIOBE > PapeeteCRIOBE > MooreaSBE5P Pompe 4997
2015-04-12 01:16:14CRIOBE > PapeeteCRIOBE > MooreaSBE16plusV2 6158
2015-04-12 01:41:52CRIOBE > PapeeteCRIOBE > MooreaSBE43 Oxygen 1609
2015-04-12 01:43:02CRIOBE > PapeeteCRIOBE > MooreaSBE18 pH 0700
2015-11-12 22:53:05CRIOBE > MooreaCRIOBE > PapeeteSBE16plusV2 6158
2015-11-12 22:53:21CRIOBE > MooreaCRIOBE > PapeeteSBE43 Oxygen 1609
2015-11-12 22:53:32CRIOBE > MooreaCRIOBE > PapeeteSBE5P Pompe 4997
2015-11-12 22:53:58CRIOBE > MooreaCRIOBE > PapeeteSBE18 pH 0683
2015-12-24 01:52:12CRIOBE > PapeeteCRIOBE > Moorea > CRIOBEFLNTUS fluo turb 1916
2015-12-24 01:52:30CRIOBE > PapeeteCRIOBE > Moorea > CRIOBESBE16plusV2 6167
2015-12-24 01:52:47CRIOBE > PapeeteCRIOBE > Moorea > CRIOBESBE18 pH 0784
2015-12-24 01:53:01CRIOBE > PapeeteCRIOBE > Moorea > CRIOBESBE43 Oxygen 1408
2015-12-24 01:53:16CRIOBE > PapeeteCRIOBE > Moorea > CRIOBESBE5P Pompe 5040
2016-07-22 23:57:20CRIOBE > HaapitiCRIOBE > PapeeteSBE16plusV2 6052
2016-07-22 23:57:26CRIOBE > HaapitiCRIOBE > PapeeteSBE18 pH 0656
2016-07-22 23:57:33CRIOBE > HaapitiCRIOBE > PapeeteSBE43 Oxygen 1612
2016-07-22 23:57:40CRIOBE > HaapitiCRIOBE > PapeeteFLNTUS fluo turb 1916
2016-07-22 23:57:46CRIOBE > HaapitiCRIOBE > PapeeteSBE5P Pompe 5219
2016-07-23 02:06:37CRIOBE > PapeeteCRIOBE > Moorea > CRIOBEFLNTUS fluo turb 1916
2016-08-09 23:01:19CRIOBE > PapeeteCRIOBE > Moorea > CRIOBESBE18 pH 0683
2016-08-09 23:01:26CRIOBE > PapeeteCRIOBE > Moorea > CRIOBESBE16plusV2 6158
2016-08-09 23:03:15CRIOBE > PapeeteCRIOBE > Moorea > CRIOBESBE43 Oxygen 1609
2016-08-09 23:09:46CRIOBE > PapeeteCRIOBE > Moorea > CRIOBESBE5P Pompe 4997
2017-02-16 21:44:37Sea Bird (3)CRIOBE > Papeete (8)FLNTUS fluo turb 1936
2017-02-22 01:08:20CRIOBE > Moorea > CRIOBE (33)CRIOBE > Papeete (8)SBE18 pH 0784
2017-02-22 01:08:44CRIOBE > Moorea > CRIOBE (33)CRIOBE > Papeete (8)FLNTUS fluo turb 1916
2017-02-22 01:09:07CRIOBE > Moorea > CRIOBE (33)CRIOBE > Papeete (8)SBE43 Oxygen 1864
2017-02-22 01:09:31CRIOBE > Moorea > CRIOBE (33)CRIOBE > Papeete (8)SBE16plusV2 6158
2017-02-22 01:13:15CRIOBE > Moorea > CRIOBE (33)CRIOBE > Papeete (8)SBE5P Pompe 5210
2017-05-06 01:18:38CRIOBE > Papeete (8)CRIOBE > Moorea > CRIOBE (33)SBE43 Oxygen 1612
2017-05-06 01:18:56CRIOBE > Papeete (8)CRIOBE > Moorea > CRIOBE (33)FLNTUS fluo turb 1936
2017-05-06 01:19:29CRIOBE > Papeete (8)CRIOBE > Moorea > CRIOBE (33)SBE5P Pompe 5219
2017-05-06 01:19:44CRIOBE > Papeete (8)CRIOBE > Moorea > CRIOBE (33)SBE16plusV2 6052
2017-05-06 01:19:58CRIOBE > Papeete (8)CRIOBE > Moorea > CRIOBE (33)SBE18 pH 0656
2018-01-30 00:52:29CRIOBE > Moorea > CRIOBE (33)CRIOBE > Papeete (8)SBE16plusV2 6051
2018-01-30 00:54:34CRIOBE > Moorea > CRIOBE (33)CRIOBE > Papeete (8)SBE43 Oxygen 1609
2018-01-30 00:54:58CRIOBE > Moorea > CRIOBE (33)CRIOBE > Papeete (8)SBE18 pH 0683
2018-01-30 00:55:24CRIOBE > Moorea > CRIOBE (33)CRIOBE > Papeete (8)SBE5P Pompe 5673
2018-01-30 01:19:59CRIOBE > Moorea > CRIOBE (33)CRIOBE > Papeete (8)FLNTUS fluo turb 1936
2018-01-30 02:12:50CRIOBE > Papeete (8)CRIOBE > Moorea > CRIOBE (33)FLNTUS fluo turb 1936
2018-02-08 21:40:05CRIOBE > Papeete (8)CRIOBE > Moorea > CRIOBE (33)SBE18 pH 0784
2018-02-08 21:42:15CRIOBE > Papeete (8)CRIOBE > Moorea > CRIOBE (33)SBE43 Oxygen 1864
2018-02-08 21:42:35CRIOBE > Papeete (8)CRIOBE > Moorea > CRIOBE (33)SBE5P Pompe 5210
2018-02-08 21:44:17CRIOBE > Papeete (8)CRIOBE > Moorea > CRIOBE (33)FLNTUS fluo turb 1916
2018-02-08 21:47:37CRIOBE > Papeete (8)CRIOBE > Moorea > CRIOBE (33)SBE16plusV2 6158
2018-02-09 22:05:50CRIOBE > Moorea > CRIOBE (33)CRIOBE > Papeete (8)FLNTUS fluo turb 1948
2018-11-21 19:14:54CRIOBE > Moorea > CRIOBE (33)CRIOBE > Papeete (8)FLNTUS fluo turb 1916
2018-11-21 19:21:54CRIOBE > Moorea > CRIOBE (33)CRIOBE > Papeete (8)SBE16plusV2 6158
2018-11-21 19:30:38CRIOBE > Moorea > CRIOBE (33)CRIOBE > Papeete (8)SBE18 pH 0664
2018-11-21 19:32:42CRIOBE > Moorea > CRIOBE (33)CRIOBE > Papeete (8)SBE43 Oxygen 1612
2018-11-21 19:34:07CRIOBE > Moorea > CRIOBE (33)CRIOBE > Papeete (8)SBE5P Pompe 4997
2018-11-21 20:05:31CRIOBE > Papeete (8)CRIOBE > Moorea > CRIOBE (33)SBE16plusV2 6051
2018-12-06 20:04:55CRIOBE > Papeete (8)CRIOBE > Moorea > CRIOBE (33)SBE43 Oxygen 1609
2018-12-06 20:05:44CRIOBE > Papeete (8)CRIOBE > Moorea > CRIOBE (33)SBE5P Pompe 5673
2018-12-06 20:06:05CRIOBE > Papeete (8)CRIOBE > Moorea > CRIOBE (33)FLNTUS fluo turb 1948
2018-12-06 20:06:29CRIOBE > Papeete (8)CRIOBE > Moorea > CRIOBE (33)SBE18 pH 0683
2019-07-05 02:07:37CRIOBE > Papeete (8)CRIOBE > Moorea (1)SBE16plusV2 6158
2019-07-05 02:59:24CRIOBE > Moorea > CRIOBE (33)CRIOBE > Papeete (8)SBE43 Oxygen 1868
2019-07-05 03:00:55CRIOBE > Moorea > CRIOBE (33)CRIOBE > Papeete (8)SBE18 pH 0700
2019-07-05 03:44:18CRIOBE > Moorea > CRIOBE (33)CRIOBE > Papeete (8)FLNTUS fluo turb 1948
2019-07-05 03:47:07CRIOBE > Papeete (8)CRIOBE > Moorea (1)FLNTUS fluo turb 1916
2019-07-05 03:51:49CRIOBE > Papeete (8)CRIOBE > Moorea (1)SBE43 Oxygen 1612
2019-07-05 03:54:48CRIOBE > Papeete (8)CRIOBE > Moorea (1)SBE18 pH 0664
2019-07-25 19:49:50CRIOBE > Moorea (1)CRIOBE > Papeete (8)SBE16plusV2 6158



Sonde SBE16 déplacée
gsiu Vendredi mai 5, 2017

La sonde SBE16 a été déplacée de 52m à 29m, plus à l'ouest (dans le sens du courant au fond).
Les nouvelles coordonnées :
S 17°31.485'
W149°34.460'

en face d'une échelle alignée avec un lampadaire

<more>
Sonde SBE16 du 27 novembre 2015 au 3 août 2016
gsiu Vendredi septembre 16, 2016
  • Température plausible sur l'ensemble des dates
  • Salinité / conductivité plausible jusqu'au 28 mars 2016. Données suivantes totalement fausses (1999 et 99) effacées.
  • Oxygène plausible jusqu'au 28 décembre 2015. Données négatives ensuite effacées. ... <more>

Agenda des Missions